ROMMA est une association bénévole à but non lucratif. Votre soutien est indispensable : ADHERER à ROMMA ou FAIRE un DON

Taninges - (74, Haute-Savoie)

Vallée du Giffre (635 m)   Longitude: 06° 35' 38" E   Latitude: 46° 06' 21" N Station romma n°98
 

Détail journalier du     <<     >>

Température Humidité Pression Vent Dir Rafale Dir. rafale Ensol.
Heure (°C) (%) (hPa) (km/h) (km/h) (min)
01:00 16.59410171SSE3SSE0
02:00 16.394101703SSE0
03:00 15.49510171SSE3SSE0
04:00 15.49610171SSE3SSE0
05:00 14.395101703SSE0
06:00 13.496101803SSE0
07:00 13.497101802SSE0
08:00 14.19710191SSE3SSE20
09:00 16.69510181SE3SE60
10:00 19.88110182SO6OSO60
11:00 22.86810183SSO6SSE60
12:00 25.36310175E24ONO60
13:00 26.16210177O24SO60
14:00 27.36010169SO21OSO60
15:00 27.557101610O21O60
16:00 24.77610167NO21O30
17:00 27.66010166O18OSO55
18:00 27.45310169O21OSO60
19:00 24.27610177O19OSO60
20:00 21.58410186NE16NE45
21:00 20.08810185NE11NE0
22:00 18.99110191NE6ENE0
23:00 17.89410191NNE5NNE0
minuit 16.995101903SE0

Graphique du 29-08-2019

 

Serveur OMMA